Terminal Aerodrome Forecast
Issued by NWS

Home | Current Version | Previous Version | Text Only | Print | Product List | Glossary On
Versions: 1 2 3 4 5 6 7 8 9 10 11 12 13 14 15 16 17
000
FTUS44 KLZK 241700
TAFADF
TAF
KADF 241720Z 2418/2518 24004KT P6SM SCT250
     FM250000 00000KT P6SM SCT250
      TEMPO 2510/2514 1SM BR BKN003
     FM251500 25006KT P6SM SCT250=

USA.gov is the U.S. government's official web portal to all federal, state and local government web resources and services.